Time;durP1;ratioP1;P1;durP2;ratioP2;P2;SDS_P1;SDS_P2;PMS_P1;PMS_P2;Temp;Humidity;BMP_temperature;BMP_pressure;BME280_temperature;BME280_humidity;BME280_pressure;Samples;Min_cycle;Max_cycle;Signal;HPM_P1;HPM_P2
2021/12/19 00:00:15;;;;;;;14.80;8.68;;;;;;;;;;6203541;28;20046;-62
2021/12/19 00:03:56;;;;;;;15.75;8.55;;;;;;;;;;6199513;28;20058;-60
2021/12/19 00:10:16;;;;;;;16.88;8.75;;;;;;;;;;6217148;28;20767;-62
2021/12/19 00:13:17;;;;;;;17.98;9.52;;;;;;;;;;6216533;28;20049;-63
2021/12/19 00:16:17;;;;;;;17.25;9.70;;;;;;;;;;6214984;28;22103;-63
2021/12/19 00:19:18;;;;;;;19.30;10.05;;;;;;;;;;6213089;28;20445;-67
2021/12/19 00:22:19;;;;;;;18.70;10.20;;;;;;;;;;6214764;28;20053;-61
2021/12/19 00:25:19;;;;;;;18.67;9.85;;;;;;;;;;6215812;28;20141;-63
2021/12/19 00:28:20;;;;;;;17.25;9.52;;;;;;;;;;6215665;28;20061;-63
2021/12/19 00:31:21;;;;;;;16.63;8.77;;;;;;;;;;6207672;28;20136;-64
2021/12/19 00:34:21;;;;;;;16.88;9.18;;;;;;;;;;6214461;28;20536;-64
2021/12/19 00:37:22;;;;;;;15.35;8.70;;;;;;;;;;6216390;28;20046;-62
2021/12/19 00:40:23;;;;;;;15.95;8.70;;;;;;;;;;6214090;28;20099;-63
2021/12/19 00:43:44;;;;;;;17.13;8.90;;;;;;;;;;6207252;28;20150;-62
2021/12/19 00:46:51;;;;;;;17.52;8.80;;;;;;;;;;6202858;28;20056;-62
2021/12/19 00:49:51;;;;;;;15.73;8.73;;;;;;;;;;6201795;28;20082;-62
2021/12/19 00:52:52;;;;;;;16.25;8.80;;;;;;;;;;6205502;28;20092;-62
2021/12/19 00:55:53;;;;;;;19.00;9.27;;;;;;;;;;6205964;28;20061;-63
2021/12/19 00:58:54;;;;;;;16.75;9.82;;;;;;;;;;6200267;28;20058;-63
2021/12/19 01:01:54;;;;;;;19.02;9.82;;;;;;;;;;6205834;28;20055;-62
2021/12/19 01:04:55;;;;;;;20.83;9.32;;;;;;;;;;6205502;28;20485;-64
2021/12/19 01:07:57;;;;;;;17.42;10.68;;;;;;;;;;6203804;28;20050;-61
2021/12/19 01:10:57;;;;;;;23.88;12.88;;;;;;;;;;6201565;28;20410;-61
2021/12/19 01:13:58;;;;;;;22.48;11.32;;;;;;;;;;6203960;28;20068;-62
2021/12/19 01:16:58;;;;;;;22.98;12.20;;;;;;;;;;6204874;28;20054;-63
2021/12/19 01:19:59;;;;;;;25.15;12.80;;;;;;;;;;6204381;28;20050;-62
2021/12/19 01:23:00;;;;;;;24.77;13.48;;;;;;;;;;6202532;28;20057;-63
2021/12/19 01:26:01;;;;;;;22.20;12.30;;;;;;;;;;6204418;28;21116;-62
2021/12/19 01:29:01;;;;;;;22.88;12.32;;;;;;;;;;6202879;28;20214;-62
2021/12/19 01:32:02;;;;;;;25.27;12.25;;;;;;;;;;6201406;28;20144;-62
2021/12/19 01:35:05;;;;;;;23.48;12.20;;;;;;;;;;6207462;28;20512;-62
2021/12/19 01:38:05;;;;;;;19.17;9.85;;;;;;;;;;6203105;28;20050;-63
2021/12/19 01:41:06;;;;;;;21.65;10.80;;;;;;;;;;6199636;28;20045;-63
2021/12/19 01:44:06;;;;;;;19.63;10.55;;;;;;;;;;6201792;28;20077;-62
2021/12/19 01:47:08;;;;;;;18.55;10.40;;;;;;;;;;6201537;28;20042;-64
2021/12/19 01:50:09;;;;;;;17.73;9.87;;;;;;;;;;6200862;28;20478;-63
2021/12/19 01:53:12;;;;;;;18.65;9.40;;;;;;;;;;6202581;28;20097;-64
2021/12/19 01:56:13;;;;;;;20.90;10.15;;;;;;;;;;6205158;28;20073;-62
2021/12/19 01:59:14;;;;;;;18.30;9.15;;;;;;;;;;6207157;28;20049;-63
2021/12/19 02:02:14;;;;;;;15.90;9.02;;;;;;;;;;6204225;28;20061;-62
2021/12/19 02:05:15;;;;;;;16.50;8.68;;;;;;;;;;6206183;28;20101;-62
2021/12/19 02:08:17;;;;;;;14.52;8.45;;;;;;;;;;6205004;28;20061;-63
2021/12/19 02:11:18;;;;;;;15.57;8.52;;;;;;;;;;6206272;28;20096;-67
2021/12/19 02:14:19;;;;;;;18.42;9.82;;;;;;;;;;6200036;28;20457;-63
2021/12/19 02:17:19;;;;;;;16.25;9.00;;;;;;;;;;6205322;28;20038;-62
2021/12/19 02:20:22;;;;;;;17.58;9.38;;;;;;;;;;6204700;28;20054;-62
2021/12/19 02:23:26;;;;;;;19.80;8.77;;;;;;;;;;6202137;28;20768;-63
2021/12/19 02:26:27;;;;;;;15.27;8.40;;;;;;;;;;6200250;28;20133;-63
2021/12/19 02:29:27;;;;;;;15.25;8.40;;;;;;;;;;6201681;28;20046;-64
2021/12/19 02:32:30;;;;;;;16.13;8.57;;;;;;;;;;6210824;28;20050;-64
2021/12/19 02:35:34;;;;;;;15.18;7.95;;;;;;;;;;6202282;28;20424;-64
2021/12/19 02:48:33;;;;;;;16.40;8.55;;;;;;;;;;6207364;28;20212;-64
2021/12/19 02:51:35;;;;;;;16.08;8.48;;;;;;;;;;6209453;28;20050;-62
2021/12/19 02:54:35;;;;;;;17.88;9.60;;;;;;;;;;6211360;28;20050;-66
2021/12/19 02:57:38;;;;;;;17.40;10.10;;;;;;;;;;6215788;28;20057;-63
2021/12/19 03:00:39;;;;;;;16.38;8.63;;;;;;;;;;6206008;28;20050;-62
2021/12/19 03:03:40;;;;;;;17.90;8.32;;;;;;;;;;6209366;28;20085;-62
2021/12/19 03:06:46;;;;;;;15.85;7.75;;;;;;;;;;6201248;28;20050;-63
2021/12/19 03:19:17;;;;;;;15.80;8.60;;;;;;;;;;6202407;28;20080;-62
2021/12/19 03:22:17;;;;;;;16.50;7.90;;;;;;;;;;6205000;28;20478;-62
2021/12/19 03:25:18;;;;;;;15.45;8.35;;;;;;;;;;6202671;28;20547;-66
2021/12/19 03:28:19;;;;;;;14.45;8.02;;;;;;;;;;6205603;28;20046;-66
2021/12/19 03:31:19;;;;;;;15.45;8.05;;;;;;;;;;6203354;28;20508;-64
2021/12/19 03:34:20;;;;;;;17.23;8.73;;;;;;;;;;6197989;28;20057;-62
2021/12/19 03:37:21;;;;;;;16.88;8.50;;;;;;;;;;6208068;28;20042;-65
2021/12/19 03:40:24;;;;;;;15.55;8.10;;;;;;;;;;6201572;28;20528;-62
2021/12/19 03:43:24;;;;;;;15.02;7.85;;;;;;;;;;6206725;28;20057;-62
2021/12/19 03:46:25;;;;;;;13.13;7.32;;;;;;;;;;6205468;28;20960;-62
2021/12/19 03:49:25;;;;;;;13.88;7.85;;;;;;;;;;6203140;28;20073;-63
2021/12/19 03:52:26;;;;;;;14.68;7.70;;;;;;;;;;6201965;28;20141;-63
2021/12/19 03:55:27;;;;;;;16.08;7.60;;;;;;;;;;6207002;28;20406;-64
2021/12/19 03:58:28;;;;;;;11.57;6.35;;;;;;;;;;6205721;28;20121;-62
2021/12/19 04:01:28;;;;;;;12.13;6.95;;;;;;;;;;6208946;28;20069;-62
2021/12/19 04:04:35;;;;;;;12.40;7.15;;;;;;;;;;6207025;28;20054;-65
2021/12/19 04:07:35;;;;;;;13.30;6.88;;;;;;;;;;6203390;28;20061;-63
2021/12/19 04:10:36;;;;;;;13.23;6.97;;;;;;;;;;6211096;28;20070;-62
2021/12/19 04:13:37;;;;;;;13.68;7.32;;;;;;;;;;6204560;28;20050;-63
2021/12/19 04:16:42;;;;;;;14.88;7.93;;;;;;;;;;6203292;28;20051;-63
2021/12/19 04:19:43;;;;;;;14.88;7.07;;;;;;;;;;6206008;28;20042;-65
2021/12/19 04:22:45;;;;;;;11.60;6.65;;;;;;;;;;6204795;28;20045;-63
2021/12/19 04:25:46;;;;;;;15.50;8.18;;;;;;;;;;6205022;28;20121;-63
2021/12/19 04:28:47;;;;;;;15.98;7.88;;;;;;;;;;6203571;28;20402;-63
2021/12/19 04:31:47;;;;;;;15.70;8.88;;;;;;;;;;6202356;28;20145;-62
2021/12/19 04:34:48;;;;;;;15.55;9.10;;;;;;;;;;6205701;28;20103;-63
2021/12/19 04:41:33;;;;;;;19.95;10.93;;;;;;;;;;6203504;28;20508;-63
2021/12/19 04:57:48;;;;;;;21.92;11.95;;;;;;;;;;6201254;28;20046;-62
2021/12/19 05:01:00;;;;;;;24.00;13.20;;;;;;;;;;6204412;28;20080;-62
2021/12/19 05:17:05;;;;;;;24.02;12.45;;;;;;;;;;6202185;28;20050;-62
2021/12/19 05:23:18;;;;;;;22.70;12.45;;;;;;;;;;6200658;28;20157;-63
2021/12/19 05:26:19;;;;;;;22.48;11.70;;;;;;;;;;6203795;28;20136;-64
2021/12/19 05:29:19;;;;;;;20.35;11.52;;;;;;;;;;6202291;28;20037;-63
2021/12/19 05:32:20;;;;;;;21.98;11.73;;;;;;;;;;6202212;28;20096;-63
2021/12/19 05:35:32;;;;;;;19.60;10.98;;;;;;;;;;6205860;28;20042;-64
2021/12/19 05:47:59;;;;;;;19.33;11.18;;;;;;;;;;6201280;28;20452;-62
2021/12/19 05:51:00;;;;;;;21.08;11.95;;;;;;;;;;6199813;28;20467;-62
2021/12/19 05:54:01;;;;;;;20.23;11.07;;;;;;;;;;6197641;28;20050;-63
2021/12/19 05:57:02;;;;;;;18.00;10.10;;;;;;;;;;6206978;28;20132;-62
2021/12/19 06:00:09;;;;;;;15.30;9.02;;;;;;;;;;6202790;28;20042;-62
2021/12/19 06:03:10;;;;;;;17.50;9.10;;;;;;;;;;6201009;28;20383;-63
2021/12/19 06:06:10;;;;;;;14.50;7.38;;;;;;;;;;6206341;28;20049;-63
2021/12/19 06:09:12;;;;;;;12.88;6.80;;;;;;;;;;6207443;28;20051;-63
2021/12/19 06:12:12;;;;;;;13.48;7.57;;;;;;;;;;6203411;28;20046;-63
2021/12/19 06:15:13;;;;;;;12.80;7.10;;;;;;;;;;6207689;28;20073;-64
2021/12/19 06:18:13;;;;;;;13.73;6.90;;;;;;;;;;6207623;28;20069;-63
2021/12/19 06:21:14;;;;;;;12.55;6.47;;;;;;;;;;6209428;28;20053;-62
2021/12/19 06:24:15;;;;;;;13.77;6.80;;;;;;;;;;6206279;28;20073;-63
2021/12/19 06:27:15;;;;;;;11.30;6.22;;;;;;;;;;6210335;28;20050;-62
2021/12/19 06:30:17;;;;;;;12.32;7.35;;;;;;;;;;6207570;28;20046;-64
2021/12/19 06:33:17;;;;;;;13.52;6.65;;;;;;;;;;6208555;28;20085;-64
2021/12/19 06:36:19;;;;;;;14.30;7.10;;;;;;;;;;6205454;28;20044;-63
2021/12/19 06:39:21;;;;;;;15.30;7.78;;;;;;;;;;6206983;28;20141;-63
2021/12/19 06:42:22;;;;;;;11.70;7.53;;;;;;;;;;6206439;28;20799;-62
2021/12/19 06:45:23;;;;;;;12.23;6.82;;;;;;;;;;6205204;28;20054;-63
2021/12/19 06:48:24;;;;;;;11.68;7.65;;;;;;;;;;6210331;28;20058;-64
2021/12/19 06:51:25;;;;;;;13.18;7.32;;;;;;;;;;6218263;28;20050;-64
2021/12/19 06:54:26;;;;;;;14.10;8.10;;;;;;;;;;6213421;28;20097;-63
2021/12/19 06:57:26;;;;;;;15.57;8.05;;;;;;;;;;6212253;28;20485;-62
2021/12/19 07:00:27;;;;;;;12.45;7.82;;;;;;;;;;6219719;28;20054;-62
2021/12/19 07:03:27;;;;;;;13.18;7.38;;;;;;;;;;6219249;28;20050;-62
2021/12/19 07:06:28;;;;;;;12.70;7.47;;;;;;;;;;6218422;28;20121;-62
2021/12/19 07:09:29;;;;;;;15.10;8.25;;;;;;;;;;6213538;28;20086;-63
2021/12/19 07:12:30;;;;;;;13.18;7.55;;;;;;;;;;6204705;28;20099;-62
2021/12/19 07:15:31;;;;;;;10.77;7.13;;;;;;;;;;6207485;28;20048;-62
2021/12/19 07:18:31;;;;;;;13.48;6.57;;;;;;;;;;6208609;28;20046;-62
2021/12/19 07:21:32;;;;;;;12.48;6.35;;;;;;;;;;6209658;28;20079;-63
2021/12/19 07:24:33;;;;;;;14.48;6.90;;;;;;;;;;6206204;28;20512;-62
2021/12/19 07:27:33;;;;;;;12.85;7.03;;;;;;;;;;6210638;28;20050;-62
2021/12/19 07:30:36;;;;;;;14.40;7.20;;;;;;;;;;6205535;28;20049;-63
2021/12/19 07:33:37;;;;;;;17.63;8.93;;;;;;;;;;6204475;28;20061;-65
2021/12/19 07:36:47;;;;;;;14.18;6.90;;;;;;;;;;6205998;28;20054;-61
2021/12/19 07:39:59;;;;;;;15.63;8.25;;;;;;;;;;6206109;28;20042;-64
2021/12/19 07:43:00;;;;;;;14.82;7.15;;;;;;;;;;6209064;28;20107;-63
2021/12/19 07:46:01;;;;;;;20.20;9.13;;;;;;;;;;6207218;28;20049;-65
2021/12/19 07:49:02;;;;;;;18.17;9.90;;;;;;;;;;6204795;28;20562;-65
2021/12/19 07:52:03;;;;;;;11.18;6.90;;;;;;;;;;6197829;28;20034;-62
2021/12/19 07:55:05;;;;;;;16.38;9.07;;;;;;;;;;6199293;28;20064;-66
2021/12/19 07:58:06;;;;;;;;;;;;;;;;;;6206636;28;20149;-62
2021/12/19 08:01:06;;;;;;;22.77;10.55;;;;;;;;;;6205989;28;20277;-64
2021/12/19 08:04:07;;;;;;;17.92;9.55;;;;;;;;;;6201785;28;20054;-62
2021/12/19 08:07:11;;;;;;;21.23;10.20;;;;;;;;;;6207422;28;20068;-63
2021/12/19 08:13:13;;;;;;;16.42;8.18;;;;;;;;;;6204556;28;20054;-64
2021/12/19 08:16:14;;;;;;;23.33;11.23;;;;;;;;;;6208224;28;20527;-65
2021/12/19 08:19:14;;;;;;;15.57;8.63;;;;;;;;;;6217300;28;20046;-64
2021/12/19 08:22:16;;;;;;;22.20;10.20;;;;;;;;;;6216340;28;20551;-62
2021/12/19 08:25:16;;;;;;;21.92;10.07;;;;;;;;;;6215433;28;20054;-63
2021/12/19 08:28:17;;;;;;;24.05;10.73;;;;;;;;;;6218149;28;20566;-62
2021/12/19 08:31:19;;;;;;;19.67;9.68;;;;;;;;;;6212932;28;20046;-62
2021/12/19 08:34:20;;;;;;;20.65;9.27;;;;;;;;;;6199781;28;20093;-63
2021/12/19 08:37:21;;;;;;;21.33;9.65;;;;;;;;;;6215551;28;20048;-64
2021/12/19 08:40:23;;;;;;;23.13;10.52;;;;;;;;;;6215782;28;20050;-67
2021/12/19 08:43:24;;;;;;;20.05;8.82;;;;;;;;;;6217869;28;20074;-68
2021/12/19 08:46:24;;;;;;;19.33;9.57;;;;;;;;;;6215981;28;20046;-69
2021/12/19 08:49:25;;;;;;;15.57;7.60;;;;;;;;;;6218079;28;20581;-62
2021/12/19 08:52:26;;;;;;;14.95;7.28;;;;;;;;;;6208897;28;20064;-62
2021/12/19 08:55:26;;;;;;;13.82;7.57;;;;;;;;;;6208707;28;20156;-65
2021/12/19 08:58:29;;;;;;;15.50;7.55;;;;;;;;;;6213461;28;21072;-63
2021/12/19 09:01:31;;;;;;;14.95;7.38;;;;;;;;;;6207883;28;20065;-64
2021/12/19 09:04:33;;;;;;;20.13;8.85;;;;;;;;;;6217405;28;20445;-63
2021/12/19 09:07:33;;;;;;;15.82;7.65;;;;;;;;;;6206711;28;20097;-64
2021/12/19 09:10:34;;;;;;;15.00;6.57;;;;;;;;;;6217718;28;20049;-64
2021/12/19 09:13:35;;;;;;;14.20;7.18;;;;;;;;;;6215022;28;20050;-61
2021/12/19 09:16:35;;;;;;;17.23;8.63;;;;;;;;;;6211563;28;20050;-61
2021/12/19 09:19:36;;;;;;;16.23;8.50;;;;;;;;;;6217360;28;20081;-63
2021/12/19 09:22:37;;;;;;;16.48;8.07;;;;;;;;;;6215943;28;20061;-64
2021/12/19 09:25:38;;;;;;;15.82;7.50;;;;;;;;;;6214506;28;20104;-66
2021/12/19 09:28:39;;;;;;;17.60;7.60;;;;;;;;;;6216608;28;20050;-63
2021/12/19 09:31:40;;;;;;;12.50;7.25;;;;;;;;;;6210122;28;20133;-62
2021/12/19 09:34:41;;;;;;;12.65;7.55;;;;;;;;;;6213712;28;20042;-62
2021/12/19 09:37:41;;;;;;;15.40;7.65;;;;;;;;;;6216727;28;20050;-62
2021/12/19 09:40:43;;;;;;;15.25;7.40;;;;;;;;;;6215791;28;20098;-62
2021/12/19 09:43:44;;;;;;;12.73;6.80;;;;;;;;;;6214473;28;20053;-63
2021/12/19 09:46:46;;;;;;;12.70;7.07;;;;;;;;;;6216325;28;20305;-62
2021/12/19 09:49:47;;;;;;;13.97;7.90;;;;;;;;;;6215206;28;20497;-62
2021/12/19 09:52:50;;;;;;;12.95;7.90;;;;;;;;;;6199507;28;20046;-62
2021/12/19 09:55:50;;;;;;;16.48;7.28;;;;;;;;;;6211158;28;20482;-63
2021/12/19 09:58:51;;;;;;;11.60;6.85;;;;;;;;;;6216416;28;20045;-64
2021/12/19 10:01:52;;;;;;;12.00;7.18;;;;;;;;;;6214537;28;20050;-64
2021/12/19 10:04:53;;;;;;;15.18;6.80;;;;;;;;;;6211149;28;20479;-69
2021/12/19 10:07:56;;;;;;;14.63;8.00;;;;;;;;;;6208643;28;20080;-64
2021/12/19 10:11:00;;;;;;;11.80;6.90;;;;;;;;;;6209468;28;20081;-60
2021/12/19 10:14:01;;;;;;;13.38;6.68;;;;;;;;;;6214897;28;20149;-61
2021/12/19 10:17:15;;;;;;;8.85;4.97;;;;;;;;;;6212283;28;20053;-62
2021/12/19 10:20:16;;;;;;;9.80;5.20;;;;;;;;;;6212316;28;20077;-62
2021/12/19 10:23:23;;;;;;;8.40;4.43;;;;;;;;;;6208105;28;20062;-62
2021/12/19 10:26:23;;;;;;;10.40;5.13;;;;;;;;;;6201133;28;20485;-62
2021/12/19 10:29:46;;;;;;;9.50;5.22;;;;;;;;;;6194724;28;20058;-61
2021/12/19 10:33:04;;;;;;;13.05;6.68;;;;;;;;;;6193165;28;20586;-63
2021/12/19 10:36:06;;;;;;;11.52;6.45;;;;;;;;;;6198337;28;20141;-61
2021/12/19 10:39:14;;;;;;;9.15;5.20;;;;;;;;;;6194341;28;20077;-60
2021/12/19 10:42:15;;;;;;;12.82;6.63;;;;;;;;;;6200948;28;20140;-61
2021/12/19 10:45:35;;;;;;;13.40;7.13;;;;;;;;;;6199943;28;20081;-61
2021/12/19 10:48:39;;;;;;;9.93;5.93;;;;;;;;;;6192745;28;20116;-63
2021/12/19 10:51:39;;;;;;;10.90;6.03;;;;;;;;;;6199272;28;20140;-62
2021/12/19 10:55:00;;;;;;;11.57;5.55;;;;;;;;;;6198022;28;20543;-62
2021/12/19 10:58:00;;;;;;;9.55;4.97;;;;;;;;;;6205894;28;20545;-61
2021/12/19 11:01:04;;;;;;;7.25;3.70;;;;;;;;;;6207774;28;20050;-62
2021/12/19 11:04:05;;;;;;;7.43;3.72;;;;;;;;;;6216070;28;20061;-64
2021/12/19 11:07:06;;;;;;;7.95;4.43;;;;;;;;;;6214728;28;20041;-63
2021/12/19 11:10:25;;;;;;;8.15;3.88;;;;;;;;;;6220592;28;20524;-67
2021/12/19 11:13:26;;;;;;;7.43;3.58;;;;;;;;;;6216901;28;20571;-61
2021/12/19 11:16:27;;;;;;;7.05;3.42;;;;;;;;;;6217286;28;20146;-62
2021/12/19 11:19:28;;;;;;;7.93;3.90;;;;;;;;;;6217818;28;20045;-63
2021/12/19 11:22:28;;;;;;;7.72;4.07;;;;;;;;;;6203380;28;20069;-62
2021/12/19 11:25:29;;;;;;;7.72;4.65;;;;;;;;;;6201697;28;20101;-62
2021/12/19 11:28:30;;;;;;;10.77;4.85;;;;;;;;;;6209694;28;20050;-61
2021/12/19 11:31:32;;;;;;;9.07;6.03;;;;;;;;;;6211952;28;20144;-61
2021/12/19 11:34:57;;;;;;;10.65;5.53;;;;;;;;;;6209569;28;20050;-62
2021/12/19 11:38:20;;;;;;;8.48;4.78;;;;;;;;;;6207555;28;20136;-63
2021/12/19 11:41:21;;;;;;;11.23;6.20;;;;;;;;;;6210233;28;20066;-59
2021/12/19 11:44:34;;;;;;;10.82;5.80;;;;;;;;;;6209458;28;20572;-61
2021/12/19 11:47:55;;;;;;;;;;;;;;;;;;6212620;28;20177;-61
2021/12/19 11:50:55;;;;;;;11.70;5.70;;;;;;;;;;6209828;28;19929;-61
2021/12/19 11:54:11;;;;;;;10.95;5.55;;;;;;;;;;6211316;28;20523;-61
2021/12/19 11:57:12;;;;;;;11.45;5.88;;;;;;;;;;6209254;28;20064;-60
2021/12/19 12:00:35;;;;;;;11.25;6.60;;;;;;;;;;6207572;28;20045;-60
2021/12/19 12:03:50;;;;;;;12.45;6.10;;;;;;;;;;6208021;28;20531;-61
2021/12/19 12:06:56;;;;;;;12.50;6.90;;;;;;;;;;6208404;28;20050;-60
2021/12/19 12:09:56;;;;;;;12.13;6.00;;;;;;;;;;6203701;28;20053;-60
2021/12/19 12:12:57;;;;;;;15.65;6.75;;;;;;;;;;6206306;28;20053;-60
2021/12/19 12:16:22;;;;;;;8.38;5.32;;;;;;;;;;6206039;28;20459;-59
2021/12/19 12:19:42;;;;;;;10.40;4.85;;;;;;;;;;6205632;28;20123;-60
2021/12/19 12:22:57;;;;;;;10.10;4.90;;;;;;;;;;6209449;28;20054;-61
2021/12/19 12:26:21;;;;;;;9.18;5.00;;;;;;;;;;6210316;28;20050;-61
2021/12/19 12:29:23;;;;;;;8.80;4.68;;;;;;;;;;6207949;28;20053;-61
2021/12/19 12:32:24;;;;;;;7.68;4.10;;;;;;;;;;6206576;28;20073;-63
2021/12/19 12:35:25;;;;;;;8.63;4.63;;;;;;;;;;6201449;28;20056;-65
2021/12/19 12:38:27;;;;;;;9.68;4.82;;;;;;;;;;6206110;28;20049;-61
2021/12/19 12:44:42;;;;;;;8.30;4.22;;;;;;;;;;6207027;28;20576;-61
2021/12/19 12:47:48;;;;;;;6.47;3.22;;;;;;;;;;6206652;28;20045;-67
2021/12/19 12:50:50;;;;;;;7.05;3.35;;;;;;;;;;6204135;28;20058;-61
2021/12/19 12:53:53;;;;;;;8.23;4.13;;;;;;;;;;6206570;28;20060;-60
2021/12/19 12:56:56;;;;;;;6.97;4.07;;;;;;;;;;6201478;28;21139;-61
2021/12/19 12:59:57;;;;;;;8.45;4.03;;;;;;;;;;6206712;28;20050;-61
2021/12/19 13:03:22;;;;;;;5.68;3.60;;;;;;;;;;6208275;28;20481;-61
2021/12/19 13:06:38;;;;;;;8.35;3.70;;;;;;;;;;6206358;28;20058;-62
2021/12/19 13:09:43;;;;;;;5.95;3.65;;;;;;;;;;6206837;28;20461;-61
2021/12/19 13:12:46;;;;;;;6.60;3.55;;;;;;;;;;6206715;28;20062;-62
2021/12/19 13:15:47;;;;;;;8.65;4.43;;;;;;;;;;6203980;28;20539;-62
2021/12/19 13:18:48;;;;;;;7.82;3.95;;;;;;;;;;6200931;28;20046;-61
2021/12/19 13:21:55;;;;;;;9.05;4.38;;;;;;;;;;6201521;28;20058;-61
2021/12/19 13:25:12;;;;;;;10.05;4.60;;;;;;;;;;6201435;28;20501;-62
2021/12/19 13:28:20;;;;;;;8.55;4.45;;;;;;;;;;6201332;28;20103;-61
2021/12/19 13:31:23;;;;;;;8.35;4.10;;;;;;;;;;6202968;28;20630;-61
2021/12/19 13:34:37;;;;;;;8.82;4.90;;;;;;;;;;6203202;28;20089;-61
2021/12/19 13:37:48;;;;;;;6.72;3.72;;;;;;;;;;6203945;28;20433;-61
2021/12/19 13:40:51;;;;;;;8.52;4.57;;;;;;;;;;6199924;28;20424;-62
2021/12/19 13:43:52;;;;;;;8.18;4.50;;;;;;;;;;6205419;28;20058;-61
2021/12/19 13:46:52;;;;;;;11.38;5.50;;;;;;;;;;6205851;28;20069;-61
2021/12/19 13:49:53;;;;;;;11.35;5.50;;;;;;;;;;6202201;28;20050;-60
2021/12/19 13:52:54;;;;;;;9.60;4.72;;;;;;;;;;6204331;28;20565;-60
2021/12/19 13:56:04;;;;;;;8.93;4.25;;;;;;;;;;6205368;28;20062;-61
2021/12/19 13:59:17;;;;;;;8.15;3.90;;;;;;;;;;6201913;28;20060;-62
2021/12/19 14:02:18;;;;;;;11.02;4.50;;;;;;;;;;6202399;28;20493;-61
2021/12/19 14:05:37;;;;;;;8.02;3.92;;;;;;;;;;6207052;28;20053;-61
2021/12/19 14:08:38;;;;;;;8.43;4.20;;;;;;;;;;6204613;28;20478;-61
2021/12/19 14:11:42;;;;;;;9.63;4.28;;;;;;;;;;6204716;28;20798;-61
2021/12/19 14:14:43;;;;;;;8.65;4.15;;;;;;;;;;6207367;28;20060;-61
2021/12/19 14:17:44;;;;;;;9.30;4.18;;;;;;;;;;6204624;28;20046;-62
2021/12/19 14:20:45;;;;;;;9.80;4.60;;;;;;;;;;6202694;28;20081;-61
2021/12/19 14:23:45;;;;;;;9.93;4.38;;;;;;;;;;6202865;28;20503;-61
2021/12/19 14:27:03;;;;;;;11.30;4.60;;;;;;;;;;6209255;28;20053;-61
2021/12/19 14:30:13;;;;;;;9.40;5.22;;;;;;;;;;6208883;28;20137;-61
2021/12/19 14:33:34;;;;;;;7.90;4.50;;;;;;;;;;6205662;28;20565;-61
2021/12/19 14:36:35;;;;;;;10.00;4.40;;;;;;;;;;6207381;28;20125;-62
2021/12/19 14:39:35;;;;;;;8.00;3.97;;;;;;;;;;6203682;28;20050;-62
2021/12/19 14:42:46;;;;;;;7.38;3.97;;;;;;;;;;6205792;28;20057;-62
2021/12/19 14:45:53;;;;;;;8.50;4.03;;;;;;;;;;6204912;28;20092;-62
2021/12/19 14:48:53;;;;;;;7.40;3.90;;;;;;;;;;6204396;28;20172;-61
2021/12/19 14:51:57;;;;;;;9.30;4.35;;;;;;;;;;6204472;28;20061;-63
2021/12/19 14:55:10;;;;;;;7.22;4.25;;;;;;;;;;6207102;28;20168;-62
2021/12/19 14:58:11;;;;;;;7.93;4.28;;;;;;;;;;6204630;28;20519;-63
2021/12/19 15:01:15;;;;;;;8.60;4.57;;;;;;;;;;6206239;28;20123;-63
2021/12/19 15:04:18;;;;;;;10.02;4.15;;;;;;;;;;6201968;28;20100;-63
2021/12/19 15:07:24;;;;;;;10.80;4.50;;;;;;;;;;6204647;28;20208;-60
2021/12/19 15:10:24;;;;;;;8.02;4.15;;;;;;;;;;6205564;28;20058;-61
2021/12/19 15:13:27;;;;;;;8.60;4.68;;;;;;;;;;6206957;28;20088;-61
2021/12/19 15:16:32;;;;;;;8.80;4.30;;;;;;;;;;6205814;28;20050;-62
2021/12/19 15:19:32;;;;;;;10.00;4.63;;;;;;;;;;6204516;28;20104;-61
2021/12/19 15:22:34;;;;;;;8.68;4.45;;;;;;;;;;6208121;28;20045;-61
2021/12/19 15:25:34;;;;;;;7.37;4.57;;;;;;;;;;6207027;28;20605;-61
2021/12/19 15:28:35;;;;;;;9.10;4.32;;;;;;;;;;6204533;28;20050;-61
2021/12/19 15:31:37;;;;;;;10.60;4.47;;;;;;;;;;6207812;28;20449;-62
2021/12/19 15:34:39;;;;;;;9.30;4.28;;;;;;;;;;6206001;28;20061;-61
2021/12/19 15:37:40;;;;;;;9.25;5.00;;;;;;;;;;6204460;28;21545;-61
2021/12/19 15:40:41;;;;;;;9.77;4.53;;;;;;;;;;6204291;28;20061;-60
2021/12/19 15:43:42;;;;;;;10.65;4.53;;;;;;;;;;6206766;28;20081;-61
2021/12/19 15:46:42;;;;;;;7.80;4.57;;;;;;;;;;6207883;28;20394;-62
2021/12/19 15:49:43;;;;;;;9.15;4.10;;;;;;;;;;6203512;28;20144;-61
2021/12/19 15:52:44;;;;;;;8.30;4.45;;;;;;;;;;6202799;28;20057;-62
2021/12/19 15:55:45;;;;;;;7.07;3.90;;;;;;;;;;6208892;28;20060;-61
2021/12/19 15:58:46;;;;;;;8.63;3.83;;;;;;;;;;6206281;28;20049;-62
2021/12/19 16:01:46;;;;;;;8.48;4.00;;;;;;;;;;6209815;28;20054;-62
2021/12/19 16:04:48;;;;;;;8.50;3.92;;;;;;;;;;6207698;28;20049;-62
2021/12/19 16:07:49;;;;;;;9.33;4.47;;;;;;;;;;6206519;28;20080;-61
2021/12/19 16:10:50;;;;;;;8.50;3.97;;;;;;;;;;6205591;28;20386;-61
2021/12/19 16:13:51;;;;;;;7.53;3.97;;;;;;;;;;6209132;28;20057;-61
2021/12/19 16:16:51;;;;;;;7.82;3.90;;;;;;;;;;6206669;28;20140;-61
2021/12/19 16:19:52;;;;;;;8.13;4.40;;;;;;;;;;6204895;28;20050;-61
2021/12/19 16:22:53;;;;;;;9.18;4.20;;;;;;;;;;6208599;28;20065;-61
2021/12/19 16:25:54;;;;;;;9.93;4.60;;;;;;;;;;6206740;28;20050;-64
2021/12/19 16:28:54;;;;;;;9.23;4.43;;;;;;;;;;6205848;28;20486;-61
2021/12/19 16:32:00;;;;;;;8.88;4.57;;;;;;;;;;6204596;28;20416;-64
2021/12/19 16:35:01;;;;;;;8.60;4.10;;;;;;;;;;6205074;28;20058;-65
2021/12/19 16:38:01;;;;;;;9.35;4.50;;;;;;;;;;6206782;28;20061;-61
2021/12/19 16:41:06;;;;;;;9.43;4.47;;;;;;;;;;6203615;28;20161;-61
2021/12/19 16:44:08;;;;;;;8.60;4.68;;;;;;;;;;6201551;28;20088;-61
2021/12/19 16:47:09;;;;;;;8.32;4.15;;;;;;;;;;6202108;28;20522;-62
2021/12/19 16:50:09;;;;;;;7.20;3.90;;;;;;;;;;6201172;28;20058;-63
2021/12/19 16:53:10;;;;;;;7.82;3.95;;;;;;;;;;6205241;28;20072;-62
2021/12/19 16:56:12;;;;;;;8.55;4.05;;;;;;;;;;6208068;28;20673;-61
2021/12/19 16:59:13;;;;;;;7.43;4.00;;;;;;;;;;6206297;28;20505;-61
2021/12/19 17:02:14;;;;;;;7.88;4.22;;;;;;;;;;6209729;28;20065;-62
2021/12/19 17:05:15;;;;;;;8.38;4.25;;;;;;;;;;6208457;28;20050;-61
2021/12/19 17:08:16;;;;;;;8.82;4.32;;;;;;;;;;6207590;28;20049;-62
2021/12/19 17:11:21;;;;;;;10.82;4.68;;;;;;;;;;6206733;28;20046;-63
2021/12/19 17:14:22;;;;;;;9.98;4.85;;;;;;;;;;6205554;28;20677;-63
2021/12/19 17:17:24;;;;;;;11.40;4.38;;;;;;;;;;6205723;28;20111;-61
2021/12/19 17:20:26;;;;;;;10.37;5.23;;;;;;;;;;6203819;28;20410;-61
2021/12/19 17:23:27;;;;;;;12.77;5.28;;;;;;;;;;6204708;28;20046;-61
2021/12/19 17:26:28;;;;;;;10.48;5.50;;;;;;;;;;6204713;28;20497;-61
2021/12/19 17:29:29;;;;;;;11.20;5.55;;;;;;;;;;6203463;28;20057;-62
2021/12/19 17:32:30;;;;;;;10.38;5.50;;;;;;;;;;6206568;28;20491;-62
2021/12/19 17:35:31;;;;;;;12.18;5.88;;;;;;;;;;6198158;28;20072;-62
2021/12/19 17:38:33;;;;;;;11.23;5.90;;;;;;;;;;6195043;28;20533;-62
2021/12/19 17:41:34;;;;;;;12.73;5.63;;;;;;;;;;6201371;28;20046;-62
2021/12/19 17:44:35;;;;;;;9.80;5.60;;;;;;;;;;6201959;28;20164;-62
2021/12/19 17:47:36;;;;;;;10.57;4.45;;;;;;;;;;6201110;28;20050;-63
2021/12/19 17:50:36;;;;;;;8.20;4.38;;;;;;;;;;6202626;28;20051;-62
2021/12/19 17:53:38;;;;;;;8.15;4.28;;;;;;;;;;6204467;28;20140;-61
2021/12/19 17:56:38;;;;;;;7.30;4.10;;;;;;;;;;6199652;28;20451;-61
2021/12/19 17:59:39;;;;;;;9.00;4.72;;;;;;;;;;6199685;28;20306;-60
2021/12/19 18:02:40;;;;;;;10.15;4.65;;;;;;;;;;6203657;28;20046;-61
2021/12/19 18:05:45;;;;;;;10.05;5.10;;;;;;;;;;6202426;28;20057;-61
2021/12/19 18:08:46;;;;;;;11.57;4.82;;;;;;;;;;6196213;28;20915;-61
2021/12/19 18:11:46;;;;;;;10.25;5.45;;;;;;;;;;6201162;28;20145;-61
2021/12/19 18:14:47;;;;;;;9.80;4.80;;;;;;;;;;6200866;28;20507;-61
2021/12/19 18:17:50;;;;;;;9.77;5.07;;;;;;;;;;6202999;28;20054;-61
2021/12/19 18:20:53;;;;;;;10.35;5.65;;;;;;;;;;6202271;28;20049;-61
2021/12/19 18:23:55;;;;;;;8.48;5.35;;;;;;;;;;6200780;28;20709;-61
2021/12/19 18:26:56;;;;;;;9.18;5.45;;;;;;;;;;6203029;28;20065;-61
2021/12/19 18:29:57;;;;;;;10.52;5.20;;;;;;;;;;6199613;28;20050;-60
2021/12/19 18:32:58;;;;;;;8.90;5.15;;;;;;;;;;6200243;28;20168;-60
2021/12/19 18:36:07;;;;;;;9.37;5.10;;;;;;;;;;6203005;28;20719;-61
2021/12/19 18:39:08;;;;;;;8.07;5.00;;;;;;;;;;6200056;28;20367;-60
2021/12/19 18:42:21;;;;;;;10.37;4.63;;;;;;;;;;6201121;28;20041;-61
2021/12/19 18:45:35;;;;;;;8.88;4.70;;;;;;;;;;6201880;28;20069;-61
2021/12/19 18:48:51;;;;;;;8.95;4.82;;;;;;;;;;6198823;28;20072;-61
2021/12/19 18:52:47;;;;;;;10.50;5.63;;;;;;;;;;6199546;28;20056;-61
2021/12/19 18:55:31;;;;;;;11.23;5.30;;;;;;;;;;6198337;28;20926;-64
2021/12/19 18:58:32;;;;;;;11.10;5.55;;;;;;;;;;6201048;28;20541;-60
2021/12/19 19:01:40;;;;;;;14.33;6.87;;;;;;;;;;6207152;28;20054;-62
2021/12/19 19:04:41;;;;;;;9.35;4.88;;;;;;;;;;6209442;28;20155;-61
2021/12/19 19:07:44;;;;;;;5.95;2.85;;;;;;;;;;6210061;28;20501;-61
2021/12/19 19:10:46;;;;;;;6.88;2.63;;;;;;;;;;6199672;28;20054;-61
2021/12/19 19:13:48;;;;;;;6.65;2.58;;;;;;;;;;6197754;28;20845;-60
2021/12/19 19:16:49;;;;;;;8.10;3.15;;;;;;;;;;6201898;28;20081;-61